createdAt,value
2023-05-07T00:04:28.134Z,101458.72
2023-05-07T00:09:35.145Z,101455.19
2023-05-07T00:14:42.052Z,101456.94
2023-05-07T00:19:50.080Z,101466.44
2023-05-07T00:24:56.697Z,101469.84
2023-05-07T00:30:04.125Z,101475.91
2023-05-07T00:35:16.452Z,101476.78
2023-05-07T00:40:23.332Z,101481.03
2023-05-07T00:45:31.258Z,101485.31
2023-05-07T00:50:39.559Z,101487.03
2023-05-07T00:55:46.297Z,101496.56
2023-05-07T01:00:53.181Z,101499.94
2023-05-07T01:06:03.020Z,101497.44
2023-05-07T01:11:10.773Z,101499.09
2023-05-07T01:16:17.506Z,101492.19
2023-05-07T01:21:29.403Z,101493.91
2023-05-07T01:26:41.187Z,101501.69
2023-05-07T01:31:50.062Z,101499.00
2023-05-07T01:36:59.339Z,101498.16
2023-05-07T01:42:08.275Z,101507.66
2023-05-07T01:47:16.584Z,101515.38
2023-05-07T01:52:23.053Z,101502.44
2023-05-07T01:57:30.886Z,101504.19
2023-05-07T02:02:37.877Z,101505.78
2023-05-07T02:07:44.885Z,101504.09
2023-05-07T02:12:56.635Z,101508.41
2023-05-07T02:18:06.015Z,101516.06
2023-05-07T02:23:13.076Z,101516.13
2023-05-07T02:28:21.116Z,101520.41
2023-05-07T02:33:39.022Z,101520.44
2023-05-07T02:38:47.714Z,101518.75
2023-05-07T02:43:55.889Z,101517.88
2023-05-07T02:49:02.903Z,101516.13
2023-05-07T02:54:10.519Z,101523.06
2023-05-07T02:59:18.448Z,101523.91
2023-05-07T03:04:25.273Z,101530.03
2023-05-07T03:09:32.164Z,101521.38
2023-05-07T03:14:40.356Z,101527.44
2023-05-07T03:19:46.885Z,101530.03
2023-05-07T03:24:54.156Z,101537.75
2023-05-07T03:30:02.684Z,101544.72
2023-05-07T03:35:11.282Z,101547.28
2023-05-07T03:40:19.433Z,101572.34
2023-05-07T03:45:31.376Z,101562.91
2023-05-07T03:50:50.103Z,101570.72
2023-05-07T03:55:58.483Z,101574.94
2023-05-07T04:01:07.958Z,101583.63
2023-05-07T04:06:15.749Z,101583.63
2023-05-07T04:11:24.396Z,101591.38
2023-05-07T04:16:32.239Z,101585.34
2023-05-07T04:21:38.663Z,101588.00
2023-05-07T04:26:45.125Z,101597.56
2023-05-07T04:31:52.944Z,101599.28
2023-05-07T04:37:02.282Z,101601.97
2023-05-07T04:42:10.255Z,101608.00
2023-05-07T04:47:18.242Z,101601.13
2023-05-07T04:52:27.348Z,101614.94
2023-05-07T04:57:35.216Z,101613.28
2023-05-07T05:02:43.326Z,101615.91
2023-05-07T05:07:53.056Z,101614.19
2023-05-07T05:13:00.256Z,101628.13
2023-05-07T05:18:10.393Z,101632.41
2023-05-07T05:23:17.671Z,101630.66
2023-05-07T05:28:24.370Z,101646.25
2023-05-07T05:33:32.452Z,101644.56
2023-05-07T05:38:43.454Z,101644.56
2023-05-07T05:43:52.507Z,101643.81
2023-05-07T05:49:01.160Z,101654.22
2023-05-07T05:54:07.849Z,101668.16
2023-05-07T05:59:15.002Z,101676.00
2023-05-07T06:04:24.111Z,101683.63
2023-05-07T06:09:30.578Z,101680.25
2023-05-07T06:14:37.117Z,101694.97
2023-05-07T06:19:45.365Z,101690.81
2023-05-07T06:24:53.174Z,101689.22
2023-05-07T06:30:02.623Z,101685.88
2023-05-07T06:35:13.301Z,101695.50
2023-05-07T06:40:21.376Z,101695.63
2023-05-07T06:45:29.375Z,101690.44
2023-05-07T06:50:38.552Z,101691.25
2023-05-07T06:55:45.060Z,101699.06
2023-05-07T07:00:52.926Z,101700.94
2023-05-07T07:06:03.219Z,101707.00
2023-05-07T07:11:13.019Z,101707.97
2023-05-07T07:16:19.726Z,101713.19
2023-05-07T07:21:28.033Z,101725.38
2023-05-07T07:26:34.745Z,101728.88
2023-05-07T07:31:42.104Z,101728.88
2023-05-07T07:36:51.407Z,101728.91
2023-05-07T07:41:59.749Z,101730.69
2023-05-07T07:47:09.121Z,101736.81
2023-05-07T07:52:17.229Z,101749.78
2023-05-07T07:57:25.127Z,101736.91
2023-05-07T08:02:31.932Z,101746.41
2023-05-07T08:07:40.240Z,101748.16
2023-05-07T08:12:46.985Z,101750.72
2023-05-07T08:17:53.967Z,101754.19
2023-05-07T08:23:02.297Z,101764.63
2023-05-07T08:28:10.152Z,101755.13
2023-05-07T08:33:18.916Z,101763.88
2023-05-07T08:38:27.513Z,101755.25
2023-05-07T08:43:36.281Z,101748.31
2023-05-07T08:48:43.926Z,101767.44
2023-05-07T08:53:55.803Z,101770.03
2023-05-07T08:59:08.096Z,101772.63
2023-05-07T09:04:17.936Z,101775.25
2023-05-07T09:09:27.380Z,101784.81
2023-05-07T09:14:35.714Z,101763.97
2023-05-07T09:19:44.222Z,101777.84
2023-05-07T09:24:53.781Z,101776.97
2023-05-07T09:30:08.563Z,101779.59
2023-05-07T09:35:23.028Z,101783.94
2023-05-07T09:40:38.094Z,101786.47
2023-05-07T09:45:52.810Z,101782.94
2023-05-07T09:51:09.301Z,101791.63
2023-05-07T09:56:20.414Z,101788.16
2023-05-07T10:01:28.489Z,101782.94
2023-05-07T10:06:36.308Z,101795.03
2023-05-07T10:11:45.467Z,101795.81
2023-05-07T10:16:54.152Z,101792.38
2023-05-07T10:22:08.142Z,101795.78
2023-05-07T10:27:24.094Z,101793.97
2023-05-07T10:32:43.869Z,101784.41
2023-05-07T10:37:56.954Z,101784.31
2023-05-07T10:43:10.873Z,101781.72
2023-05-07T10:48:37.964Z,101789.53
2023-05-07T10:53:50.524Z,101790.31
2023-05-07T10:59:43.515Z,101807.81
2023-05-07T11:05:24.248Z,101797.41
2023-05-07T11:10:55.114Z,101798.25
2023-05-07T11:16:26.238Z,101806.00
2023-05-07T11:21:46.053Z,101797.22
2023-05-07T11:27:11.230Z,101794.47
2023-05-07T11:32:26.244Z,101808.31
2023-05-07T11:37:35.485Z,101814.28
2023-05-07T11:42:45.095Z,101804.56
2023-05-07T11:47:53.559Z,101801.81
2023-05-07T11:53:00.389Z,101815.97
2023-05-07T11:58:08.966Z,101808.25
2023-05-07T12:03:19.453Z,101819.50
2023-05-07T12:08:26.158Z,101818.25
2023-05-07T12:13:33.345Z,101822.56
2023-05-07T12:18:42.771Z,101821.56
2023-05-07T12:23:50.537Z,101838.16
2023-05-07T12:28:57.896Z,101827.69
2023-05-07T12:34:07.753Z,101823.56
2023-05-07T12:39:15.762Z,101835.41
2023-05-07T12:44:24.838Z,101839.03
2023-05-07T12:49:33.626Z,101829.53
2023-05-07T12:54:41.778Z,101842.78
2023-05-07T12:59:48.760Z,101836.75
2023-05-07T13:04:57.426Z,101841.31
2023-05-07T13:10:04.710Z,101835.84
2023-05-07T13:15:13.575Z,101828.69
2023-05-07T13:20:22.270Z,101835.09
2023-05-07T13:25:29.139Z,101827.31
2023-05-07T13:30:36.256Z,101839.38
2023-05-07T13:35:45.000Z,101831.53
2023-05-07T13:40:51.996Z,101833.22
2023-05-07T13:45:59.290Z,101828.72
2023-05-07T13:51:08.184Z,101824.25
2023-05-07T13:56:15.626Z,101825.09
2023-05-07T14:01:23.639Z,101829.41
2023-05-07T14:06:33.193Z,101831.09
2023-05-07T14:11:40.039Z,101840.66
2023-05-07T14:16:48.511Z,101833.56
2023-05-07T14:21:59.377Z,101842.44
2023-05-07T14:27:07.100Z,101834.81
2023-05-07T14:32:14.098Z,101837.38
2023-05-07T14:37:25.708Z,101846.06
2023-05-07T14:42:32.996Z,101851.22
2023-05-07T14:47:40.136Z,101845.06
2023-05-07T14:52:48.722Z,101843.28
2023-05-07T14:57:55.696Z,101847.41
2023-05-07T15:03:09.716Z,101845.97
2023-05-07T15:08:18.350Z,101852.91
2023-05-07T15:13:25.234Z,101852.78
2023-05-07T15:18:32.090Z,101852.78
2023-05-07T15:23:40.677Z,101861.72
2023-05-07T15:28:47.550Z,101854.69
2023-05-07T15:33:54.524Z,101859.78
2023-05-07T15:39:05.660Z,101857.25
2023-05-07T15:44:12.371Z,101863.22
2023-05-07T15:49:20.355Z,101862.41
2023-05-07T15:54:28.628Z,101863.25
2023-05-07T15:59:36.598Z,101861.56
2023-05-07T16:04:43.669Z,101856.41
2023-05-07T16:09:51.818Z,101865.13
2023-05-07T16:14:59.856Z,101858.22
2023-05-07T16:20:09.520Z,101862.63
2023-05-07T16:25:17.998Z,101864.44
2023-05-07T16:30:25.045Z,101854.94
2023-05-07T16:35:32.385Z,101855.81
2023-05-07T16:40:42.204Z,101862.00
2023-05-07T16:45:49.281Z,101865.59
2023-05-07T16:50:57.951Z,101868.25
2023-05-07T16:56:08.998Z,101875.25
2023-05-07T17:01:16.909Z,101868.38
2023-05-07T17:06:23.551Z,101867.56
2023-05-07T17:11:34.258Z,101866.75
2023-05-07T17:16:40.863Z,101875.50
2023-05-07T17:21:47.525Z,101876.44
2023-05-07T17:26:55.649Z,101881.75
2023-05-07T17:32:02.894Z,101890.50
2023-05-07T17:37:09.932Z,101893.16
2023-05-07T17:42:18.550Z,101882.75
2023-05-07T17:47:25.416Z,101895.84
2023-05-07T17:52:32.932Z,101895.00
2023-05-07T17:57:42.258Z,101906.34
2023-05-07T18:02:49.284Z,101909.84
2023-05-07T18:07:56.522Z,101909.00
2023-05-07T18:13:05.193Z,101915.09
2023-05-07T18:18:12.867Z,101915.09
2023-05-07T18:23:20.494Z,101927.28
2023-05-07T18:28:29.095Z,101945.50
2023-05-07T18:33:36.244Z,101955.91
2023-05-07T18:38:46.226Z,101959.31
2023-05-07T18:43:58.243Z,101965.34
2023-05-07T18:49:06.260Z,101963.56
2023-05-07T18:54:15.449Z,101978.28
2023-05-07T18:59:23.706Z,101979.00
2023-05-07T19:04:32.498Z,101981.53
2023-05-07T19:09:42.395Z,101992.72
2023-05-07T19:14:57.623Z,101999.56
2023-05-07T19:25:21.330Z,102018.38
2023-05-07T19:30:30.462Z,102016.53
2023-05-07T19:35:39.726Z,102035.47
2023-05-07T19:40:47.793Z,102032.59
2023-05-07T19:45:56.900Z,102040.09
2023-05-07T19:51:04.114Z,102048.47
2023-05-07T19:56:14.393Z,102061.41
2023-05-07T20:01:29.105Z,102051.78
2023-05-07T20:06:35.868Z,102061.91
2023-05-07T20:11:43.400Z,102069.63
2023-05-07T20:16:51.781Z,102064.50
2023-05-07T20:22:00.495Z,102072.75
2023-05-07T20:27:07.566Z,102076.91
2023-05-07T20:32:16.239Z,102082.84
2023-05-07T20:37:25.905Z,102088.75
2023-05-07T20:42:33.096Z,102098.13
2023-05-07T20:47:43.221Z,102106.50
2023-05-07T20:52:50.208Z,102104.44
2023-05-07T20:57:57.369Z,102103.22
2023-05-07T21:03:06.667Z,102113.44
2023-05-07T21:08:13.560Z,102120.00
2023-05-07T21:13:20.606Z,102118.72
2023-05-07T21:18:31.167Z,102132.22
2023-05-07T21:23:38.459Z,102133.16
2023-05-07T21:28:45.638Z,102128.91
2023-05-07T21:34:13.909Z,102136.75
2023-05-07T21:39:23.011Z,102149.47
2023-05-07T21:44:34.632Z,102158.75
2023-05-07T21:49:43.137Z,102154.91
2023-05-07T21:54:49.862Z,102159.13
2023-05-07T21:59:56.380Z,102162.06
2023-05-07T22:05:04.879Z,102161.94
2023-05-07T22:10:13.766Z,102166.19
2023-05-07T22:15:21.331Z,102156.69
2023-05-07T22:20:30.358Z,102167.44
2023-05-07T22:25:37.219Z,102162.03
2023-05-07T22:30:44.162Z,102169.84
2023-05-07T22:35:52.588Z,102170.69
2023-05-07T22:41:00.445Z,102167.50
2023-05-07T22:46:08.359Z,102164.16
2023-05-07T22:51:17.448Z,102168.22
2023-05-07T22:56:23.799Z,102167.22
2023-05-07T23:01:30.540Z,102167.38
2023-05-07T23:06:38.995Z,102163.28
2023-05-07T23:11:47.291Z,102167.56
2023-05-07T23:16:53.993Z,102175.25
2023-05-07T23:22:02.216Z,102170.44
2023-05-07T23:27:09.568Z,102168.63
2023-05-07T23:32:16.466Z,102166.75
2023-05-07T23:37:26.288Z,102176.88
2023-05-07T23:42:32.999Z,102182.59
2023-05-07T23:47:39.710Z,102182.34
2023-05-07T23:52:48.122Z,102182.06
2023-05-07T23:57:54.787Z,102189.09
